Time;durP1;ratioP1;P1;durP2;ratioP2;P2;SDS_P1;SDS_P2;PMS_P1;PMS_P2;Temp;Humidity;BMP_temperature;BMP_pressure;BME280_temperature;BME280_humidity;BME280_pressure;Samples;Min_cycle;Max_cycle;Signal;HPM_P1;HPM_P2
2022/08/13 00:01:18;;;;;;;2.13;1.67;;;19.40;90.70;;;;;;5053234;28;20164;-79
2022/08/13 00:03:45;;;;;;;5.43;3.10;;;19.30;91.00;;;;;;5053653;28;20449;-78
2022/08/13 00:06:11;;;;;;;2.70;2.53;;;19.30;90.80;;;;;;5052895;28;20462;-79
2022/08/13 00:08:39;;;;;;;2.07;1.93;;;19.20;91.00;;;;;;5052581;28;20440;-79
2022/08/13 00:11:07;;;;;;;2.60;1.83;;;19.20;91.00;;;;;;5054224;28;20442;-79
2022/08/13 00:13:34;;;;;;;2.47;2.27;;;19.10;91.00;;;;;;5052059;28;20458;-79
2022/08/13 00:16:00;;;;;;;12.63;2.10;;;19.10;91.20;;;;;;5053252;28;20460;-79
2022/08/13 00:18:29;;;;;;;3.50;2.63;;;19.00;91.30;;;;;;5079321;28;20456;-79
2022/08/13 00:20:58;;;;;;;1.30;1.20;;;19.00;91.40;;;;;;5076459;28;20515;-79
2022/08/13 00:23:29;;;;;;;2.53;2.37;;;18.90;91.40;;;;;;5095441;28;20423;-79
2022/08/13 00:25:57;;;;;;;3.03;2.87;;;18.90;91.60;;;;;;5076123;28;20837;-78
2022/08/13 00:28:32;;;;;;;2.13;1.90;;;18.80;91.80;;;;;;5076595;28;20442;-78
2022/08/13 00:30:59;;;;;;;2.70;2.50;;;18.80;91.90;;;;;;5076539;28;20408;-79
2022/08/13 00:33:25;;;;;;;3.13;2.90;;;18.70;92.00;;;;;;5076455;28;20524;-78
2022/08/13 00:35:53;;;;;;;10.03;2.97;;;18.70;91.90;;;;;;5076614;28;20518;-79
2022/08/13 00:38:25;;;;;;;2.33;2.20;;;18.70;92.20;;;;;;5075935;28;20408;-79
2022/08/13 00:40:53;;;;;;;1.77;1.67;;;18.60;92.40;;;;;;5060221;28;20902;-79
2022/08/13 00:43:20;;;;;;;2.33;2.20;;;18.60;92.40;;;;;;5076004;28;20416;-78
2022/08/13 00:45:46;;;;;;;3.30;2.27;;;18.50;92.40;;;;;;5076082;28;20424;-79
2022/08/13 00:50:58;;;;;;;3.93;2.27;;;18.50;92.50;;;;;;5094812;28;20399;-79
2022/08/13 00:53:24;;;;;;;2.93;1.80;;;18.40;92.90;;;;;;5079829;28;20823;-78
2022/08/13 00:55:55;;;;;;;1.80;1.70;;;18.40;92.80;;;;;;5079588;28;20408;-78
2022/08/13 00:58:22;;;;;;;7.23;2.37;;;18.40;93.10;;;;;;5097559;28;20396;-78
2022/08/13 01:00:51;;;;;;;5.07;3.20;;;18.40;93.30;;;;;;5097589;28;20415;-78
2022/08/13 01:03:18;;;;;;;2.70;2.50;;;18.30;93.20;;;;;;5079308;28;20420;-78
2022/08/13 01:05:46;;;;;;;3.37;3.17;;;18.30;93.30;;;;;;5079495;28;20955;-78
2022/08/13 01:08:18;;;;;;;2.37;2.00;;;18.30;93.30;;;;;;5079192;28;20908;-78
2022/08/13 01:10:48;;;;;;;4.17;2.00;;;18.30;93.50;;;;;;5079445;28;20416;-78
2022/08/13 01:13:16;;;;;;;2.40;2.20;;;18.20;93.80;;;;;;5079453;28;20459;-78
2022/08/13 01:15:44;;;;;;;2.50;2.20;;;18.20;94.10;;;;;;5078907;28;20412;-79
2022/08/13 01:18:13;;;;;;;3.23;3.07;;;18.10;94.20;;;;;;5078436;28;20464;-78
2022/08/13 01:20:49;;;;;;;1.60;1.50;;;18.10;94.30;;;;;;5080167;28;20641;-78
2022/08/13 01:23:15;;;;;;;3.30;2.00;;;18.00;94.50;;;;;;5079388;28;20565;-78
2022/08/13 01:25:43;;;;;;;2.47;1.60;;;18.00;94.80;;;;;;5079859;28;20431;-78
2022/08/13 01:28:09;;;;;;;1.83;1.80;;;18.00;95.00;;;;;;5079518;28;20473;-78
2022/08/13 01:30:36;;;;;;;2.30;2.10;;;17.90;95.00;;;;;;5079336;28;20815;-79
2022/08/13 01:33:02;;;;;;;1.50;1.47;;;17.90;95.50;;;;;;5097169;28;20206;-78
2022/08/13 01:35:28;;;;;;;3.83;2.83;;;17.80;95.70;;;;;;5079562;28;20423;-78
2022/08/13 01:37:57;;;;;;;5.10;1.90;;;17.80;95.60;;;;;;5079345;28;20681;-78
2022/08/13 01:40:24;;;;;;;3.23;2.27;;;17.80;95.40;;;;;;5079666;28;20863;-79
2022/08/13 01:42:50;;;;;;;2.80;2.20;;;17.70;95.70;;;;;;5079728;28;20427;-79
2022/08/13 01:45:18;;;;;;;2.43;2.23;;;17.70;95.60;;;;;;5079617;28;20424;-78
2022/08/13 01:50:31;;;;;;;2.90;2.70;;;17.60;95.50;;;;;;5097849;28;20431;-79
2022/08/13 01:53:01;;;;;;;2.20;2.00;;;17.50;95.70;;;;;;5079253;28;20453;-78
2022/08/13 01:55:39;;;;;;;3.33;2.50;;;17.50;96.10;;;;;;5079468;28;20413;-78
2022/08/13 01:58:07;;;;;;;3.40;2.80;;;17.40;95.90;;;;;;5079310;28;20464;-78
2022/08/13 02:00:34;;;;;;;3.50;3.30;;;17.40;96.00;;;;;;5097366;28;20419;-79
2022/08/13 02:03:01;;;;;;;4.00;2.73;;;17.30;95.90;;;;;;5079227;28;20423;-78
2022/08/13 02:05:27;;;;;;;2.33;1.97;;;17.30;95.90;;;;;;5078692;28;20424;-78
2022/08/13 02:07:53;;;;;;;3.80;1.97;;;17.20;95.90;;;;;;5079000;28;20413;-78
2022/08/13 02:10:22;;;;;;;2.23;2.03;;;17.20;96.00;;;;;;5078677;28;20441;-79
2022/08/13 02:12:48;;;;;;;2.80;2.40;;;17.10;96.00;;;;;;5080301;28;20456;-78
2022/08/13 02:15:15;;;;;;;4.50;2.17;;;17.10;96.20;;;;;;5079637;28;20557;-79
2022/08/13 02:17:41;;;;;;;4.13;1.80;;;17.10;96.20;;;;;;5066409;28;20551;-79
2022/08/13 02:20:09;;;;;;;2.50;2.20;;;17.10;96.10;;;;;;5055590;28;20454;-79
2022/08/13 02:22:36;;;;;;;2.07;1.93;;;17.20;96.30;;;;;;5055653;28;20446;-79
2022/08/13 02:25:04;;;;;;;2.97;2.30;;;17.10;96.40;;;;;;5056256;28;20465;-79
2022/08/13 02:27:30;;;;;;;6.30;3.00;;;17.10;96.50;;;;;;5056271;28;20414;-79
2022/08/13 02:29:57;;;;;;;2.63;2.43;;;17.10;96.40;;;;;;5057876;28;20430;-78
2022/08/13 02:32:25;;;;;;;2.60;2.40;;;17.00;96.30;;;;;;5056176;28;20187;-79
2022/08/13 02:34:53;;;;;;;2.27;1.97;;;17.00;96.40;;;;;;5055768;28;20460;-79
2022/08/13 02:37:21;;;;;;;2.73;2.53;;;17.00;96.60;;;;;;5055946;28;20417;-79
2022/08/13 02:39:53;;;;;;;5.50;3.33;;;17.00;96.60;;;;;;5056094;28;20430;-78
2022/08/13 02:42:22;;;;;;;3.23;1.73;;;16.90;96.70;;;;;;5052923;28;20564;-77
2022/08/13 02:44:49;;;;;;;2.77;2.40;;;16.90;96.90;;;;;;5053740;28;21157;-77
2022/08/13 02:47:17;;;;;;;2.40;2.20;;;16.80;97.10;;;;;;5054246;28;20405;-78
2022/08/13 02:49:43;;;;;;;2.00;1.53;;;16.80;97.20;;;;;;5053440;28;20430;-77
2022/08/13 02:52:09;;;;;;;2.60;2.10;;;16.80;97.20;;;;;;5053199;28;20421;-77
2022/08/13 02:54:44;;;;;;;7.67;2.40;;;16.70;97.30;;;;;;5052874;28;20204;-78
2022/08/13 02:57:10;;;;;;;2.43;2.20;;;16.70;97.30;;;;;;5053064;28;20413;-78
2022/08/13 02:59:36;;;;;;;4.27;2.47;;;16.70;97.30;;;;;;5053822;28;20461;-78
2022/08/13 03:02:04;;;;;;;2.00;1.90;;;16.70;97.30;;;;;;5056322;28;20414;-79
2022/08/13 03:04:30;;;;;;;2.80;2.37;;;16.70;97.30;;;;;;5054760;28;20418;-78
2022/08/13 03:06:57;;;;;;;2.63;2.37;;;16.80;97.30;;;;;;5054241;28;20480;-78
2022/08/13 03:09:23;;;;;;;3.07;2.50;;;16.70;97.30;;;;;;5054762;28;20962;-79
2022/08/13 03:11:49;;;;;;;1.93;1.83;;;16.70;97.30;;;;;;5055517;28;21001;-79
2022/08/13 03:14:16;;;;;;;7.53;2.73;;;16.60;97.30;;;;;;5055346;28;20462;-79
2022/08/13 03:16:41;;;;;;;2.60;2.43;;;16.60;97.30;;;;;;5055343;28;20853;-80
2022/08/13 03:19:07;;;;;;;1.80;1.70;;;16.60;97.30;;;;;;5055679;28;20509;-80
2022/08/13 03:21:43;;;;;;;4.90;3.33;;;16.60;97.30;;;;;;5055672;28;20538;-79
2022/08/13 03:24:19;;;;;;;3.10;2.07;;;16.60;97.30;;;;;;5056280;28;20887;-79
2022/08/13 03:26:45;;;;;;;3.93;2.23;;;16.50;97.30;;;;;;5055558;28;20414;-79
2022/08/13 03:29:11;;;;;;;3.90;2.33;;;16.50;97.30;;;;;;5055660;28;20541;-79
2022/08/13 03:31:38;;;;;;;3.50;2.43;;;16.50;97.30;;;;;;5055153;28;20279;-79
2022/08/13 03:34:06;;;;;;;2.47;2.27;;;16.40;97.30;;;;;;5055379;28;20196;-78
2022/08/13 03:36:33;;;;;;;9.73;3.10;;;16.40;97.30;;;;;;5054987;28;20727;-79
2022/08/13 03:38:59;;;;;;;3.87;2.93;;;16.40;97.30;;;;;;5055379;28;20815;-79
2022/08/13 03:41:26;;;;;;;8.80;2.43;;;16.30;97.30;;;;;;5055309;28;20421;-79
2022/08/13 03:43:53;;;;;;;2.83;2.30;;;16.30;97.30;;;;;;5055556;28;20424;-79
2022/08/13 03:46:21;;;;;;;5.00;3.43;;;16.30;97.30;;;;;;5054767;28;20588;-79
2022/08/13 03:48:49;;;;;;;2.57;2.37;;;16.30;97.30;;;;;;5054545;28;20442;-79
2022/08/13 03:51:17;;;;;;;3.90;3.00;;;16.30;97.30;;;;;;5054433;28;20490;-78
2022/08/13 03:53:44;;;;;;;1.90;1.73;;;16.20;97.30;;;;;;5053416;28;20530;-78
2022/08/13 03:56:11;;;;;;;2.93;2.47;;;16.20;97.30;;;;;;5052945;28;20425;-78
2022/08/13 03:58:39;;;;;;;2.53;2.33;;;16.20;97.30;;;;;;5053347;28;20466;-77
2022/08/13 04:01:05;;;;;;;2.90;2.37;;;16.10;97.30;;;;;;5051998;28;21089;-77
2022/08/13 04:03:36;;;;;;;3.17;2.97;;;16.10;97.30;;;;;;5052718;28;20700;-78
2022/08/13 04:06:09;;;;;;;2.63;2.17;;;16.00;97.30;;;;;;5051773;28;20430;-79
2022/08/13 04:08:36;;;;;;;3.87;3.57;;;16.00;97.30;;;;;;5053144;28;20442;-79
2022/08/13 04:11:11;;;;;;;2.57;2.37;;;16.00;97.30;;;;;;5051888;28;20422;-79
2022/08/13 04:13:38;;;;;;;2.20;2.00;;;16.00;97.30;;;;;;5052995;28;20479;-78
2022/08/13 04:16:07;;;;;;;3.13;2.93;;;16.00;97.30;;;;;;5054045;28;20410;-79
2022/08/13 04:18:35;;;;;;;3.13;2.93;;;16.00;97.30;;;;;;5052753;28;20462;-78
2022/08/13 04:21:03;;;;;;;3.00;2.50;;;16.00;97.30;;;;;;5052550;28;20449;-79
2022/08/13 04:23:28;;;;;;;4.90;3.37;;;15.90;97.30;;;;;;5052997;28;20473;-78
2022/08/13 04:25:55;;;;;;;6.90;3.03;;;15.90;97.30;;;;;;5052932;28;20446;-79
2022/08/13 04:28:21;;;;;;;4.20;2.40;;;15.90;97.30;;;;;;5052856;28;20180;-78
2022/08/13 04:30:47;;;;;;;5.40;3.27;;;15.80;97.30;;;;;;5052370;28;20454;-78
2022/08/13 04:33:14;;;;;;;7.63;3.50;;;15.80;97.30;;;;;;5053828;28;20458;-79
2022/08/13 04:35:41;;;;;;;2.07;1.93;;;15.80;97.30;;;;;;5051995;28;20466;-78
2022/08/13 04:38:11;;;;;;;3.77;3.50;;;15.80;97.30;;;;;;5052019;28;20438;-79
2022/08/13 04:40:40;;;;;;;3.03;2.83;;;15.80;97.30;;;;;;5053809;28;20406;-79
2022/08/13 04:43:06;;;;;;;2.47;2.20;;;15.90;97.30;;;;;;5052111;28;20415;-78
2022/08/13 04:45:33;;;;;;;4.73;3.00;;;15.90;97.30;;;;;;5052446;28;20420;-78
2022/08/13 04:48:07;;;;;;;2.30;2.10;;;15.90;97.30;;;;;;5053741;28;20418;-79
2022/08/13 04:50:34;;;;;;;3.27;2.87;;;15.90;97.30;;;;;;5054066;28;20896;-79
2022/08/13 04:53:00;;;;;;;9.43;2.57;;;16.00;97.30;;;;;;5053810;28;20481;-79
2022/08/13 04:55:27;;;;;;;4.20;3.50;;;16.00;97.30;;;;;;5054322;28;20417;-78
2022/08/13 04:57:53;;;;;;;2.57;2.37;;;16.10;97.30;;;;;;5054012;28;20411;-79
2022/08/13 05:00:24;;;;;;;10.33;3.07;;;16.10;97.30;;;;;;5052850;28;20440;-79
2022/08/13 05:02:52;;;;;;;3.10;2.40;;;16.20;97.30;;;;;;5053014;28;20410;-79
2022/08/13 05:05:21;;;;;;;2.50;2.30;;;16.20;97.30;;;;;;5053087;28;20426;-78
2022/08/13 05:07:50;;;;;;;3.00;2.80;;;16.30;97.30;;;;;;5054879;28;20418;-79
2022/08/13 05:10:15;;;;;;;3.60;2.70;;;16.30;97.30;;;;;;5053674;28;20446;-79
2022/08/13 05:12:42;;;;;;;3.37;2.63;;;16.30;97.30;;;;;;5057329;28;20428;-79
2022/08/13 05:15:08;;;;;;;3.07;2.93;;;16.40;97.30;;;;;;5073740;28;20175;-78
2022/08/13 05:17:34;;;;;;;4.80;3.63;;;16.40;97.30;;;;;;5073998;28;20476;-79
2022/08/13 05:20:00;;;;;;;2.97;2.77;;;16.50;97.30;;;;;;5074552;28;20421;-83
2022/08/13 05:22:28;;;;;;;8.13;3.03;;;16.50;97.30;;;;;;5073518;28;20178;-83
2022/08/13 05:24:53;;;;;;;2.73;2.60;;;16.50;97.30;;;;;;5074471;28;20539;-83
2022/08/13 05:27:19;;;;;;;4.13;3.77;;;16.60;97.30;;;;;;5073361;28;20410;-83
2022/08/13 05:29:45;;;;;;;6.03;3.90;;;16.70;97.30;;;;;;5070588;28;20193;-81
2022/08/13 05:32:10;;;;;;;9.77;4.83;;;16.80;97.30;;;;;;5056315;28;20190;-85
2022/08/13 05:34:37;;;;;;;4.53;3.20;;;16.80;97.30;;;;;;5068824;28;20249;-82
2022/08/13 05:37:04;;;;;;;8.60;3.93;;;16.90;97.30;;;;;;5060732;28;20643;-82
2022/08/13 05:39:30;;;;;;;6.60;4.53;;;17.00;97.30;;;;;;5100947;22;22379;-87
2022/08/13 05:41:55;;;;;;;3.27;2.93;;;17.00;97.30;;;;;;5094226;27;20458;-88
2022/08/13 05:44:22;;;;;;;4.07;2.87;;;17.10;97.30;;;;;;5092350;28;20420;-88
2022/08/13 05:46:49;;;;;;;3.10;2.90;;;17.20;97.30;;;;;;5091241;28;20348;-86
2022/08/13 05:49:15;;;;;;;4.23;3.93;;;17.20;97.30;;;;;;5094225;28;20792;-86
2022/08/13 05:51:43;;;;;;;5.33;4.63;;;17.30;97.30;;;;;;5098142;28;20791;-88
2022/08/13 05:54:10;;;;;;;4.03;3.23;;;17.40;97.30;;;;;;5098309;28;20462;-85
2022/08/13 05:56:37;;;;;;;11.17;4.93;;;17.40;97.30;;;;;;5088392;28;20443;-86
2022/08/13 06:03:22;;;;;;;4.90;4.10;;;17.50;97.30;;;;;;5094456;28;20435;-86
2022/08/13 06:04:41;;;;;;;5.83;4.30;;;17.60;97.30;;;;;;5113294;28;20401;-88
2022/08/13 06:07:19;;;;;;;3.93;2.93;;;17.70;97.30;;;;;;5089004;28;20416;-85
2022/08/13 06:09:45;;;;;;;5.40;5.10;;;17.70;97.30;;;;;;5099200;28;20206;-86
2022/08/13 06:12:11;;;;;;;13.10;5.10;;;17.80;97.30;;;;;;5099217;28;20526;-85
2022/08/13 06:14:38;;;;;;;3.57;3.33;;;17.90;97.30;;;;;;5098657;28;20447;-85
2022/08/13 06:17:04;;;;;;;5.97;4.07;;;18.00;97.30;;;;;;5098736;28;20420;-84
2022/08/13 06:19:32;;;;;;;5.20;4.33;;;18.00;97.30;;;;;;5099280;28;20898;-86
2022/08/13 06:22:02;;;;;;;5.90;3.50;;;18.10;97.30;;;;;;5099149;28;20184;-86
2022/08/13 06:24:35;;;;;;;5.10;3.03;;;18.20;97.30;;;;;;5098935;28;20430;-86
2022/08/13 06:27:04;;;;;;;4.80;4.17;;;18.30;97.30;;;;;;5103396;28;20407;-87
2022/08/13 06:29:35;;;;;;;4.60;4.30;;;18.40;97.30;;;;;;5085644;28;20532;-89
2022/08/13 06:32:04;;;;;;;3.40;3.00;;;18.50;97.30;;;;;;5098258;28;20420;-82
2022/08/13 06:34:34;;;;;;;5.63;5.10;;;18.50;97.30;;;;;;5097616;28;21184;-83
2022/08/13 06:37:04;;;;;;;2.73;2.53;;;18.60;97.30;;;;;;5097011;28;20408;-83
2022/08/13 06:39:31;;;;;;;4.13;3.17;;;18.70;97.30;;;;;;5096857;28;20796;-83
2022/08/13 06:42:02;;;;;;;5.13;3.63;;;18.80;97.30;;;;;;5096786;28;20470;-84
2022/08/13 06:44:32;;;;;;;5.93;3.60;;;18.80;97.30;;;;;;5097898;28;20443;-84
2022/08/13 06:47:00;;;;;;;3.70;3.10;;;18.90;97.30;;;;;;5098013;28;20423;-83
2022/08/13 06:49:26;;;;;;;5.80;3.63;;;19.00;97.30;;;;;;5092372;28;20527;-83
2022/08/13 06:51:52;;;;;;;6.63;3.80;;;19.10;97.30;;;;;;5094416;28;20514;-83
2022/08/13 06:54:19;;;;;;;6.17;4.80;;;19.20;97.30;;;;;;5094688;28;20736;-82
2022/08/13 06:56:45;;;;;;;5.70;4.23;;;19.30;97.30;;;;;;5095496;28;20420;-83
2022/08/13 06:59:13;;;;;;;3.90;3.33;;;19.40;97.30;;;;;;5077468;28;20983;-82
2022/08/13 07:01:41;;;;;;;3.13;2.57;;;19.50;97.30;;;;;;5087901;28;20423;-83
2022/08/13 07:04:13;;;;;;;5.63;3.90;;;19.60;97.00;;;;;;5091073;28;21148;-83
2022/08/13 07:06:41;;;;;;;7.90;4.37;;;19.70;96.80;;;;;;5088752;28;20477;-83
2022/08/13 07:09:07;;;;;;;3.80;3.03;;;19.80;96.70;;;;;;5090108;28;20432;-82
2022/08/13 07:11:33;;;;;;;4.20;3.20;;;19.90;96.50;;;;;;5090057;28;20812;-82
2022/08/13 07:14:01;;;;;;;3.43;2.37;;;20.00;96.50;;;;;;5090773;28;20452;-82
2022/08/13 07:16:30;;;;;;;6.80;4.27;;;20.20;96.60;;;;;;5090810;28;20838;-81
2022/08/13 07:18:58;;;;;;;3.13;2.33;;;20.30;97.10;;;;;;5096245;28;20436;-83
2022/08/13 07:21:25;;;;;;;8.13;5.33;;;20.50;96.80;;;;;;5096774;28;20419;-83
2022/08/13 07:23:53;;;;;;;7.43;3.60;;;20.60;96.40;;;;;;5096762;28;20515;-83
2022/08/13 07:26:19;;;;;;;3.53;3.20;;;20.80;95.60;;;;;;5097144;28;20423;-83
2022/08/13 07:28:49;;;;;;;4.00;2.50;;;20.90;95.20;;;;;;5110266;28;20522;-83
2022/08/13 07:31:23;;;;;;;4.60;3.40;;;21.00;95.40;;;;;;5093452;28;20990;-82
2022/08/13 07:33:53;;;;;;;5.73;3.17;;;21.20;95.90;;;;;;5111279;28;20974;-82
2022/08/13 07:36:19;;;;;;;5.33;3.70;;;21.30;95.50;;;;;;5092302;28;20506;-82
2022/08/13 07:38:46;;;;;;;3.30;2.50;;;21.50;95.40;;;;;;5091615;28;20478;-83
2022/08/13 07:41:13;;;;;;;4.53;4.23;;;21.60;95.30;;;;;;5093381;28;20443;-82
2022/08/13 07:43:43;;;;;;;5.47;4.53;;;21.80;95.00;;;;;;5106154;28;20417;-82
2022/08/13 07:46:12;;;;;;;6.13;3.30;;;21.90;94.80;;;;;;5094557;28;20472;-82
2022/08/13 07:48:40;;;;;;;3.77;3.10;;;22.10;94.40;;;;;;5097395;28;20470;-82
2022/08/13 07:51:10;;;;;;;4.47;3.50;;;22.20;94.10;;;;;;5106555;28;20424;-83
2022/08/13 07:53:37;;;;;;;8.23;2.97;;;22.40;94.10;;;;;;5094794;28;20456;-83
2022/08/13 07:56:06;;;;;;;10.60;3.70;;;22.50;92.70;;;;;;5094849;28;20420;-82
2022/08/13 07:58:33;;;;;;;4.00;3.33;;;22.70;92.70;;;;;;5094849;28;20443;-83
2022/08/13 08:00:59;;;;;;;7.47;4.97;;;22.80;92.30;;;;;;5080774;28;20408;-85
2022/08/13 08:03:42;;;;;;;5.00;3.37;;;22.80;91.80;;;;;;5081915;28;20428;-86
2022/08/13 08:06:15;;;;;;;9.70;3.00;;;22.90;91.50;;;;;;5083526;28;20415;-86
2022/08/13 08:08:42;;;;;;;3.33;2.93;;;23.00;91.90;;;;;;5093410;28;20439;-86
2022/08/13 08:11:09;;;;;;;4.20;3.30;;;23.10;92.00;;;;;;5091007;28;21118;-86
2022/08/13 08:13:39;;;;;;;4.50;2.93;;;23.20;91.70;;;;;;5091741;28;20450;-85
2022/08/13 08:16:05;;;;;;;4.40;3.47;;;23.20;91.40;;;;;;5080995;28;20421;-87
2022/08/13 08:18:33;;;;;;;4.80;3.27;;;23.20;91.40;;;;;;5090746;28;20788;-86
2022/08/13 08:21:07;;;;;;;3.90;2.83;;;23.30;91.60;;;;;;5080982;28;20417;-87
2022/08/13 08:23:37;;;;;;;5.40;3.10;;;23.30;91.50;;;;;;5081572;28;20423;-86
2022/08/13 08:26:07;;;;;;;4.30;2.70;;;23.40;91.00;;;;;;5097104;27;20407;-86
2022/08/13 08:28:34;;;;;;;7.23;4.10;;;23.40;90.90;;;;;;5103282;28;20427;-86
2022/08/13 08:31:01;;;;;;;3.27;2.90;;;23.50;90.90;;;;;;5082348;28;20413;-87
2022/08/13 08:33:27;;;;;;;3.17;3.07;;;23.60;90.80;;;;;;5083525;28;20447;-86
2022/08/13 08:35:56;;;;;;;4.30;2.53;;;23.70;90.60;;;;;;5093671;28;20424;-87
2022/08/13 08:43:57;;;;;;;5.13;3.73;;;24.10;89.60;;;;;;5096889;28;20467;-85
2022/08/13 08:46:24;;;;;;;3.23;2.43;;;24.30;88.60;;;;;;5082981;28;20420;-86
2022/08/13 08:48:54;;;;;;;6.30;4.37;;;24.30;88.80;;;;;;5093352;28;20475;-86
2022/08/13 08:51:21;;;;;;;2.77;2.50;;;24.40;88.70;;;;;;5111833;28;20496;-86
2022/08/13 08:53:47;;;;;;;8.20;3.17;;;24.50;88.40;;;;;;5093525;28;20463;-86
2022/08/13 08:56:16;;;;;;;2.90;2.00;;;24.60;88.40;;;;;;5093315;28;20415;-86
2022/08/13 08:58:42;;;;;;;4.33;3.13;;;24.60;88.40;;;;;;5078961;28;20879;-86
2022/08/13 09:01:10;;;;;;;3.53;2.40;;;24.60;88.30;;;;;;5073188;28;20511;-86
2022/08/13 09:03:39;;;;;;;3.53;2.33;;;24.60;88.80;;;;;;5087463;28;20173;-86
2022/08/13 09:06:08;;;;;;;5.13;3.20;;;24.60;89.00;;;;;;5091258;28;20856;-86
2022/08/13 09:08:35;;;;;;;3.80;3.60;;;24.60;88.90;;;;;;5092659;28;20527;-86
2022/08/13 09:11:02;;;;;;;8.30;4.70;;;24.60;89.40;;;;;;5093661;28;20423;-85
2022/08/13 09:13:29;;;;;;;7.33;2.93;;;24.70;89.50;;;;;;5100574;28;20555;-86
2022/08/13 09:15:57;;;;;;;3.60;2.63;;;24.70;89.40;;;;;;5097323;28;20480;-87
2022/08/13 09:18:24;;;;;;;5.53;2.97;;;24.70;89.40;;;;;;5097272;28;20446;-85
2022/08/13 09:20:50;;;;;;;3.20;2.60;;;24.70;89.40;;;;;;5088111;28;20404;-86
2022/08/13 09:23:16;;;;;;;4.70;3.60;;;24.70;89.40;;;;;;5092860;28;20411;-87
2022/08/13 09:25:48;;;;;;;2.73;2.53;;;24.70;89.40;;;;;;5115312;28;20422;-87
2022/08/13 09:28:17;;;;;;;3.23;3.03;;;24.70;89.20;;;;;;5093569;28;20577;-85
2022/08/13 09:30:45;;;;;;;4.37;2.90;;;24.60;89.50;;;;;;5106409;28;20422;-86
2022/08/13 09:33:12;;;;;;;2.93;2.73;;;24.60;89.50;;;;;;5084312;28;20554;-86
2022/08/13 09:35:39;;;;;;;4.10;3.80;;;24.50;89.80;;;;;;5096819;28;20954;-86
2022/08/13 09:38:08;;;;;;;3.13;2.93;;;24.40;90.10;;;;;;5078452;28;20479;-86
2022/08/13 09:40:39;;;;;;;2.63;2.47;;;24.40;90.40;;;;;;5078861;28;20466;-86
2022/08/13 09:43:14;;;;;;;3.83;2.70;;;24.30;90.60;;;;;;5070290;28;20448;-86
2022/08/13 09:45:42;;;;;;;5.97;2.43;;;24.30;90.70;;;;;;5069567;28;20632;-87
2022/08/13 09:48:08;;;;;;;4.07;2.87;;;24.30;90.90;;;;;;5068285;28;20414;-86
2022/08/13 09:50:35;;;;;;;4.13;3.20;;;24.20;91.00;;;;;;5057158;28;20447;-87
2022/08/13 09:53:01;;;;;;;3.90;3.27;;;24.20;90.80;;;;;;5069707;28;20449;-87
2022/08/13 09:55:26;;;;;;;7.20;3.60;;;24.20;90.70;;;;;;5074294;28;20417;-87
2022/08/13 09:57:59;;;;;;;5.30;2.10;;;24.20;91.00;;;;;;5056455;28;20190;-86
2022/08/13 10:00:29;;;;;;;4.73;3.10;;;24.30;91.20;;;;;;5055989;28;20290;-87
2022/08/13 10:02:59;;;;;;;2.90;2.73;;;24.30;91.10;;;;;;5074532;28;20529;-86
2022/08/13 10:05:25;;;;;;;4.37;3.97;;;24.30;91.10;;;;;;5069914;28;20543;-87
2022/08/13 10:07:53;;;;;;;3.83;3.00;;;24.30;91.20;;;;;;5081779;28;20999;-86
2022/08/13 10:10:20;;;;;;;4.83;2.70;;;24.30;91.00;;;;;;5077504;28;20803;-86
2022/08/13 10:12:45;;;;;;;3.60;3.40;;;24.40;91.20;;;;;;5056394;28;20431;-88
2022/08/13 10:15:12;;;;;;;6.20;4.00;;;24.40;90.60;;;;;;5071834;28;20905;-86
2022/08/13 10:17:45;;;;;;;6.13;4.33;;;24.40;90.40;;;;;;5075784;28;20182;-88
2022/08/13 10:20:12;;;;;;;4.40;3.80;;;24.40;90.40;;;;;;5075445;28;21036;-87
2022/08/13 10:22:37;;;;;;;4.40;3.33;;;24.40;90.10;;;;;;5065322;28;20425;-87
2022/08/13 10:25:03;;;;;;;3.67;3.10;;;24.50;90.30;;;;;;5072921;28;20427;-87
2022/08/13 10:27:29;;;;;;;3.37;2.90;;;24.50;90.00;;;;;;5065296;28;20175;-87
2022/08/13 10:29:54;;;;;;;5.43;3.60;;;24.50;90.10;;;;;;5059358;28;20201;-85
2022/08/13 10:32:20;;;;;;;6.53;4.03;;;24.60;90.10;;;;;;5075735;28;20325;-87
2022/08/13 10:34:46;;;;;;;4.20;2.73;;;24.60;89.40;;;;;;5061767;28;20233;-86
2022/08/13 10:37:12;;;;;;;2.47;2.27;;;24.50;89.50;;;;;;5065247;28;20187;-87
2022/08/13 10:39:38;;;;;;;4.27;3.07;;;24.50;89.90;;;;;;5060740;28;20429;-87
2022/08/13 10:42:04;;;;;;;2.83;2.30;;;24.40;89.60;;;;;;5092519;28;20436;-86
2022/08/13 10:44:30;;;;;;;4.27;3.30;;;24.30;89.70;;;;;;5094902;28;20421;-87
2022/08/13 10:46:55;;;;;;;8.60;4.90;;;24.30;90.00;;;;;;5084449;28;20663;-87
2022/08/13 10:49:22;;;;;;;4.20;2.63;;;24.20;90.30;;;;;;5092016;28;20671;-86
2022/08/13 10:51:48;;;;;;;2.93;2.73;;;24.20;90.20;;;;;;5085140;28;20265;-87
2022/08/13 10:54:13;;;;;;;2.90;2.77;;;24.20;90.70;;;;;;5092270;28;20547;-86
2022/08/13 10:56:39;;;;;;;3.00;2.70;;;24.30;90.80;;;;;;5084837;28;20175;-87
2022/08/13 10:59:05;;;;;;;2.40;2.20;;;24.30;90.70;;;;;;5092147;28;20273;-88
2022/08/13 11:01:31;;;;;;;2.27;2.10;;;24.30;90.60;;;;;;5095098;28;20710;-87
2022/08/13 11:04:01;;;;;;;4.40;2.90;;;24.30;90.60;;;;;;5094885;28;20268;-87
2022/08/13 11:06:27;;;;;;;2.63;2.30;;;24.40;90.40;;;;;;5084136;28;20413;-86
2022/08/13 11:08:56;;;;;;;4.00;3.40;;;24.40;90.40;;;;;;5092573;28;20526;-88
2022/08/13 11:11:22;;;;;;;3.07;2.80;;;24.50;90.60;;;;;;5095240;28;20415;-87
2022/08/13 11:13:48;;;;;;;6.63;3.67;;;24.60;91.50;;;;;;5094575;28;20450;-87
2022/08/13 11:19:00;;;;;;;3.80;2.47;;;24.80;91.10;;;;;;5100944;28;20439;-87
2022/08/13 11:21:26;;;;;;;3.70;2.93;;;25.00;91.50;;;;;;5095226;28;20596;-88
2022/08/13 11:23:53;;;;;;;29.77;3.87;;;25.10;90.60;;;;;;5113592;28;20444;-88
2022/08/13 11:26:19;;;;;;;2.47;2.27;;;25.20;90.00;;;;;;5098679;28;20761;-88
2022/08/13 11:28:45;;;;;;;3.67;3.23;;;25.30;90.20;;;;;;5082826;28;20440;-87
2022/08/13 11:31:10;;;;;;;4.03;2.73;;;25.40;90.10;;;;;;5094488;28;20430;-88
2022/08/13 11:33:36;;;;;;;3.90;2.40;;;25.40;90.40;;;;;;5094623;28;20193;-87
2022/08/13 11:36:02;;;;;;;3.80;3.60;;;25.40;90.70;;;;;;5093686;28;20212;-88
2022/08/13 11:38:28;;;;;;;3.57;3.37;;;25.40;89.90;;;;;;5094604;28;20178;-87
2022/08/13 11:40:55;;;;;;;4.20;2.93;;;25.40;91.10;;;;;;5093990;28;20467;-88
2022/08/13 11:43:26;;;;;;;4.73;3.40;;;25.30;90.60;;;;;;5094675;28;20182;-87
2022/08/13 11:45:52;;;;;;;8.80;3.60;;;25.30;89.60;;;;;;5105435;22;20496;-88
2022/08/13 11:48:19;;;;;;;4.07;2.83;;;25.30;88.80;;;;;;5054433;28;20435;-87
2022/08/13 11:50:45;;;;;;;8.83;3.13;;;25.30;89.30;;;;;;5054171;28;20492;-87
2022/08/13 11:53:10;;;;;;;8.40;3.93;;;25.30;89.80;;;;;;5088149;28;20463;-87
2022/08/13 11:55:36;;;;;;;4.57;3.40;;;25.30;90.50;;;;;;5080435;28;20470;-87
2022/08/13 11:58:05;;;;;;;4.20;2.77;;;25.30;90.30;;;;;;5053292;28;20178;-87
2022/08/13 12:00:32;;;;;;;6.30;3.03;;;25.30;88.80;;;;;;5056003;28;20176;-87
2022/08/13 12:02:57;;;;;;;3.03;2.83;;;25.20;89.30;;;;;;5026284;28;20426;-88
2022/08/13 12:05:23;;;;;;;2.20;2.00;;;25.20;89.60;;;;;;5051062;28;20450;-87
2022/08/13 12:07:48;;;;;;;7.43;2.83;;;25.20;89.70;;;;;;5050152;28;20684;-87
2022/08/13 12:10:14;;;;;;;3.77;2.73;;;25.30;90.10;;;;;;5021977;28;20188;-87
2022/08/13 12:12:39;;;;;;;4.37;2.40;;;25.30;90.20;;;;;;5021133;28;20613;-87
2022/08/13 12:15:06;;;;;;;7.20;3.60;;;25.30;90.20;;;;;;5034194;28;20337;-87
2022/08/13 12:17:32;;;;;;;3.07;2.77;;;25.30;90.60;;;;;;5020385;28;20270;-88
2022/08/13 12:19:57;;;;;;;2.73;2.53;;;25.30;90.30;;;;;;5051144;28;20469;-88
2022/08/13 12:22:23;;;;;;;4.10;3.73;;;25.30;90.60;;;;;;5023677;28;20237;-88
2022/08/13 12:24:48;;;;;;;3.20;2.77;;;25.30;90.80;;;;;;5051401;28;20194;-88
2022/08/13 12:27:14;;;;;;;7.97;4.13;;;25.20;90.70;;;;;;5035352;28;20185;-88
2022/08/13 12:29:42;;;;;;;5.87;2.83;;;25.20;90.70;;;;;;5022902;28;20191;-88
2022/08/13 12:32:07;;;;;;;4.03;3.70;;;25.20;90.70;;;;;;5035664;28;20187;-88
2022/08/13 12:34:36;;;;;;;3.67;3.47;;;25.10;90.50;;;;;;5035806;28;21047;-87
2022/08/13 12:37:02;;;;;;;3.27;3.10;;;25.10;90.60;;;;;;5035552;28;20184;-87
2022/08/13 12:39:32;;;;;;;4.30;3.27;;;25.10;90.60;;;;;;5035633;28;20434;-88
2022/08/13 12:42:03;;;;;;;4.13;3.10;;;25.10;89.70;;;;;;5026991;28;20184;-88
2022/08/13 12:44:31;;;;;;;3.27;3.13;;;25.10;89.50;;;;;;5052204;28;20469;-89
2022/08/13 12:47:03;;;;;;;2.17;1.87;;;25.10;88.10;;;;;;5039708;28;20523;-87
2022/08/13 12:49:33;;;;;;;5.87;3.53;;;25.10;88.30;;;;;;5036958;28;20434;-88
2022/08/13 12:52:13;;;;;;;8.07;3.20;;;25.00;88.20;;;;;;5041967;28;20476;-87
2022/08/13 12:54:39;;;;;;;2.80;2.17;;;25.00;88.00;;;;;;5037561;28;20497;-88
2022/08/13 12:57:04;;;;;;;4.60;2.97;;;25.00;88.20;;;;;;5037504;28;20458;-88
2022/08/13 12:59:30;;;;;;;2.77;2.57;;;25.10;88.20;;;;;;5044643;28;20714;-88
2022/08/13 13:01:58;;;;;;;4.00;3.27;;;25.10;88.20;;;;;;5043661;28;20521;-87
2022/08/13 13:04:24;;;;;;;2.80;2.67;;;25.10;88.20;;;;;;5049197;28;20199;-87